sensor_id;sensor_type;location;lat;lon;timestamp;temperature;humidity
9167;DHT22;4618;48.818;9.088;2023-12-20T03:53:45;5.30;99.90
9167;DHT22;4618;48.818;9.088;2023-12-20T03:56:10;5.40;99.90
9167;DHT22;4618;48.818;9.088;2023-12-20T03:58:36;5.30;99.90
9167;DHT22;4618;48.818;9.088;2023-12-20T04:01:01;5.30;99.90
9167;DHT22;4618;48.818;9.088;2023-12-20T04:03:28;5.30;99.90
9167;DHT22;4618;48.818;9.088;2023-12-20T04:05:53;5.30;99.90
9167;DHT22;4618;48.818;9.088;2023-12-20T04:08:20;5.20;99.90
9167;DHT22;4618;48.818;9.088;2023-12-20T04:10:46;5.20;99.90
9167;DHT22;4618;48.818;9.088;2023-12-20T04:13:11;5.20;99.90
9167;DHT22;4618;48.818;9.088;2023-12-20T04:15:37;5.20;99.90
9167;DHT22;4618;48.818;9.088;2023-12-20T04:18:03;5.20;99.90
9167;DHT22;4618;48.818;9.088;2023-12-20T04:20:28;5.20;99.90
9167;DHT22;4618;48.818;9.088;2023-12-20T04:22:54;5.20;99.90
9167;DHT22;4618;48.818;9.088;2023-12-20T04:25:19;5.20;99.90
9167;DHT22;4618;48.818;9.088;2023-12-20T04:27:45;5.20;99.90
9167;DHT22;4618;48.818;9.088;2023-12-20T04:30:11;5.10;99.90
9167;DHT22;4618;48.818;9.088;2023-12-20T04:32:37;5.10;99.90
9167;DHT22;4618;48.818;9.088;2023-12-20T04:35:03;5.10;99.90
9167;DHT22;4618;48.818;9.088;2023-12-20T04:37:28;5.00;99.90
9167;DHT22;4618;48.818;9.088;2023-12-20T04:39:54;5.10;99.90
9167;DHT22;4618;48.818;9.088;2023-12-20T04:42:20;5.10;99.90
9167;DHT22;4618;48.818;9.088;2023-12-20T04:44:45;5.10;99.90
9167;DHT22;4618;48.818;9.088;2023-12-20T04:47:11;5.10;99.90
9167;DHT22;4618;48.818;9.088;2023-12-20T04:49:36;5.10;99.90
9167;DHT22;4618;48.818;9.088;2023-12-20T04:52:02;5.20;99.90
9167;DHT22;4618;48.818;9.088;2023-12-20T04:54:28;5.20;99.90
9167;DHT22;4618;48.818;9.088;2023-12-20T04:56:53;5.20;99.90
9167;DHT22;4618;48.818;9.088;2023-12-20T04:59:19;5.10;99.90
9167;DHT22;4618;48.818;9.088;2023-12-20T05:01:45;5.10;99.90
9167;DHT22;4618;48.818;9.088;2023-12-20T05:04:10;5.20;99.90
9167;DHT22;4618;48.818;9.088;2023-12-20T05:06:36;5.20;99.90
9167;DHT22;4618;48.818;9.088;2023-12-20T05:09:01;5.20;99.90
9167;DHT22;4618;48.818;9.088;2023-12-20T05:11:27;5.20;99.90
9167;DHT22;4618;48.818;9.088;2023-12-20T05:13:52;5.20;99.90
9167;DHT22;4618;48.818;9.088;2023-12-20T05:16:18;5.20;99.90
9167;DHT22;4618;48.818;9.088;2023-12-20T05:18:45;5.20;1.00
9167;DHT22;4618;48.818;9.088;2023-12-20T05:21:11;5.20;1.00
9167;DHT22;4618;48.818;9.088;2023-12-20T05:23:36;5.20;1.00
9167;DHT22;4618;48.818;9.088;2023-12-20T05:26:02;5.20;1.00
9167;DHT22;4618;48.818;9.088;2023-12-20T05:28:27;5.20;1.00
9167;DHT22;4618;48.818;9.088;2023-12-20T05:30:53;5.20;1.00
9167;DHT22;4618;48.818;9.088;2023-12-20T05:33:19;5.20;1.00
9167;DHT22;4618;48.818;9.088;2023-12-20T05:35:45;5.20;1.00
9167;DHT22;4618;48.818;9.088;2023-12-20T05:38:10;5.20;1.00
9167;DHT22;4618;48.818;9.088;2023-12-20T05:40:36;5.20;1.00
9167;DHT22;4618;48.818;9.088;2023-12-20T05:43:01;5.20;1.00
9167;DHT22;4618;48.818;9.088;2023-12-20T05:45:27;5.20;1.00
9167;DHT22;4618;48.818;9.088;2023-12-20T05:47:53;5.20;1.00
9167;DHT22;4618;48.818;9.088;2023-12-20T05:50:19;5.20;1.00
9167;DHT22;4618;48.818;9.088;2023-12-20T05:52:44;5.10;1.00
9167;DHT22;4618;48.818;9.088;2023-12-20T05:55:10;5.20;1.00
9167;DHT22;4618;48.818;9.088;2023-12-20T05:57:35;5.10;1.00
9167;DHT22;4618;48.818;9.088;2023-12-20T06:00:01;5.10;1.00
9167;DHT22;4618;48.818;9.088;2023-12-20T06:02:26;5.20;1.00
9167;DHT22;4618;48.818;9.088;2023-12-20T06:04:52;5.10;1.00
9167;DHT22;4618;48.818;9.088;2023-12-20T06:07:18;5.20;1.00
9167;DHT22;4618;48.818;9.088;2023-12-20T06:09:43;5.20;1.00
9167;DHT22;4618;48.818;9.088;2023-12-20T06:12:09;5.10;1.00
9167;DHT22;4618;48.818;9.088;2023-12-20T06:14:35;5.10;1.00
9167;DHT22;4618;48.818;9.088;2023-12-20T06:17:01;5.20;1.00
9167;DHT22;4618;48.818;9.088;2023-12-20T06:19:27;5.20;1.00
9167;DHT22;4618;48.818;9.088;2023-12-20T06:21:53;5.20;1.00
9167;DHT22;4618;48.818;9.088;2023-12-20T06:24:18;5.20;1.00
9167;DHT22;4618;48.818;9.088;2023-12-20T06:26:44;5.20;1.00
9167;DHT22;4618;48.818;9.088;2023-12-20T06:29:10;5.20;1.00
9167;DHT22;4618;48.818;9.088;2023-12-20T06:31:35;5.20;1.00
9167;DHT22;4618;48.818;9.088;2023-12-20T06:34:01;5.30;1.00
9167;DHT22;4618;48.818;9.088;2023-12-20T06:36:26;5.30;1.00
9167;DHT22;4618;48.818;9.088;2023-12-20T06:38:52;5.30;1.00
9167;DHT22;4618;48.818;9.088;2023-12-20T06:41:18;5.30;1.00
9167;DHT22;4618;48.818;9.088;2023-12-20T06:43:43;5.40;1.00
9167;DHT22;4618;48.818;9.088;2023-12-20T06:46:09;5.40;1.00
9167;DHT22;4618;48.818;9.088;2023-12-20T06:48:35;5.40;1.00
9167;DHT22;4618;48.818;9.088;2023-12-20T06:51:01;5.40;1.00
9167;DHT22;4618;48.818;9.088;2023-12-20T06:53:27;5.40;1.00
9167;DHT22;4618;48.818;9.088;2023-12-20T06:55:53;5.50;1.00
9167;DHT22;4618;48.818;9.088;2023-12-20T06:58:19;5.40;1.00
9167;DHT22;4618;48.818;9.088;2023-12-20T07:00:44;5.50;1.00
9167;DHT22;4618;48.818;9.088;2023-12-20T07:03:10;5.60;1.00
9167;DHT22;4618;48.818;9.088;2023-12-20T07:05:35;5.60;1.00
9167;DHT22;4618;48.818;9.088;2023-12-20T07:08:01;5.60;1.00
9167;DHT22;4618;48.818;9.088;2023-12-20T07:10:27;5.60;1.00
9167;DHT22;4618;48.818;9.088;2023-12-20T07:12:52;5.60;1.00
9167;DHT22;4618;48.818;9.088;2023-12-20T07:15:21;5.60;1.00
9167;DHT22;4618;48.818;9.088;2023-12-20T07:17:46;5.70;1.00
9167;DHT22;4618;48.818;9.088;2023-12-20T07:20:12;5.60;1.00
9167;DHT22;4618;48.818;9.088;2023-12-20T07:22:37;5.60;1.00
9167;DHT22;4618;48.818;9.088;2023-12-20T07:25:03;5.50;1.00
9167;DHT22;4618;48.818;9.088;2023-12-20T07:27:29;5.50;1.00
9167;DHT22;4618;48.818;9.088;2023-12-20T07:29:55;5.40;1.00
9167;DHT22;4618;48.818;9.088;2023-12-20T07:32:20;5.40;99.90
9167;DHT22;4618;48.818;9.088;2023-12-20T07:34:46;5.40;1.00
9167;DHT22;4618;48.818;9.088;2023-12-20T07:37:11;5.30;1.00
9167;DHT22;4618;48.818;9.088;2023-12-20T07:39:40;5.40;1.00
9167;DHT22;4618;48.818;9.088;2023-12-20T07:42:09;5.40;1.00
9167;DHT22;4618;48.818;9.088;2023-12-20T07:44:35;5.30;1.00
9167;DHT22;4618;48.818;9.088;2023-12-20T07:47:03;5.40;1.00
9167;DHT22;4618;48.818;9.088;2023-12-20T07:49:30;5.30;99.90
9167;DHT22;4618;48.818;9.088;2023-12-20T07:51:56;5.30;99.90
9167;DHT22;4618;48.818;9.088;2023-12-20T07:54:21;5.20;99.90
9167;DHT22;4618;48.818;9.088;2023-12-20T07:56:47;5.00;99.90
9167;DHT22;4618;48.818;9.088;2023-12-20T07:59:12;5.00;99.90
9167;DHT22;4618;48.818;9.088;2023-12-20T08:01:38;4.90;99.90
9167;DHT22;4618;48.818;9.088;2023-12-20T08:04:04;4.90;99.90
9167;DHT22;4618;48.818;9.088;2023-12-20T08:06:29;4.90;99.90
9167;DHT22;4618;48.818;9.088;2023-12-20T08:08:55;4.90;99.90
9167;DHT22;4618;48.818;9.088;2023-12-20T08:11:20;4.90;99.90
9167;DHT22;4618;48.818;9.088;2023-12-20T08:13:46;4.90;99.90
9167;DHT22;4618;48.818;9.088;2023-12-20T08:16:11;4.90;23.70
9167;DHT22;4618;48.818;9.088;2023-12-20T08:18:39;5.00;1.00
9167;DHT22;4618;48.818;9.088;2023-12-20T08:21:04;5.00;1.00
9167;DHT22;4618;48.818;9.088;2023-12-20T08:23:33;5.00;1.00
9167;DHT22;4618;48.818;9.088;2023-12-20T08:26:00;5.00;1.00
9167;DHT22;4618;48.818;9.088;2023-12-20T08:28:28;4.90;1.00
9167;DHT22;4618;48.818;9.088;2023-12-20T08:30:54;4.90;1.00
9167;DHT22;4618;48.818;9.088;2023-12-20T08:33:20;4.80;1.00
9167;DHT22;4618;48.818;9.088;2023-12-20T08:35:45;4.80;1.00
9167;DHT22;4618;48.818;9.088;2023-12-20T08:38:11;4.80;1.00
9167;DHT22;4618;48.818;9.088;2023-12-20T08:40:38;4.70;1.00
9167;DHT22;4618;48.818;9.088;2023-12-20T08:43:03;4.70;1.00
9167;DHT22;4618;48.818;9.088;2023-12-20T08:45:29;4.80;1.00
9167;DHT22;4618;48.818;9.088;2023-12-20T08:47:54;4.80;1.00
9167;DHT22;4618;48.818;9.088;2023-12-20T08:50:20;4.80;1.00
9167;DHT22;4618;48.818;9.088;2023-12-20T08:52:45;4.90;1.00
9167;DHT22;4618;48.818;9.088;2023-12-20T08:55:11;4.90;1.00
9167;DHT22;4618;48.818;9.088;2023-12-20T08:57:38;4.90;1.00
9167;DHT22;4618;48.818;9.088;2023-12-20T09:00:04;4.90;1.00
9167;DHT22;4618;48.818;9.088;2023-12-20T09:02:29;4.90;1.00
9167;DHT22;4618;48.818;9.088;2023-12-20T09:04:55;5.00;1.00
9167;DHT22;4618;48.818;9.088;2023-12-20T09:07:30;5.00;99.90
9167;DHT22;4618;48.818;9.088;2023-12-20T09:09:57;5.00;99.90
9167;DHT22;4618;48.818;9.088;2023-12-20T09:12:23;5.10;99.90
9167;DHT22;4618;48.818;9.088;2023-12-20T09:14:49;5.10;99.90
9167;DHT22;4618;48.818;9.088;2023-12-20T09:17:16;5.10;99.90
9167;DHT22;4618;48.818;9.088;2023-12-20T09:19:42;5.30;99.90
9167;DHT22;4618;48.818;9.088;2023-12-20T09:22:09;5.90;1.00
9167;DHT22;4618;48.818;9.088;2023-12-20T09:24:34;6.70;1.00
9167;DHT22;4618;48.818;9.088;2023-12-20T09:27:00;7.20;99.90
9167;DHT22;4618;48.818;9.088;2023-12-20T09:29:26;7.60;63.30
9167;DHT22;4618;48.818;9.088;2023-12-20T09:31:51;7.90;1.00
9167;DHT22;4618;48.818;9.088;2023-12-20T09:34:17;8.20;99.90
9167;DHT22;4618;48.818;9.088;2023-12-20T09:36:43;8.50;1.00
9167;DHT22;4618;48.818;9.088;2023-12-20T09:39:17;8.40;1.00
9167;DHT22;4618;48.818;9.088;2023-12-20T09:42:03;8.60;1.00
9167;DHT22;4618;48.818;9.088;2023-12-20T09:44:30;8.80;99.90
9167;DHT22;4618;48.818;9.088;2023-12-20T09:46:56;9.20;99.90
9167;DHT22;4618;48.818;9.088;2023-12-20T09:49:22;9.20;1.00
9167;DHT22;4618;48.818;9.088;2023-12-20T09:51:50;9.10;1.00
9167;DHT22;4618;48.818;9.088;2023-12-20T09:54:21;9.40;1.00
9167;DHT22;4618;48.818;9.088;2023-12-20T09:56:47;9.50;1.00
9167;DHT22;4618;48.818;9.088;2023-12-20T09:59:13;9.50;1.00
9167;DHT22;4618;48.818;9.088;2023-12-20T10:01:40;9.80;1.00
9167;DHT22;4618;48.818;9.088;2023-12-20T10:04:07;9.40;1.00
9167;DHT22;4618;48.818;9.088;2023-12-20T10:06:42;8.80;2.10
9167;DHT22;4618;48.818;9.088;2023-12-20T10:09:08;8.60;1.00
9167;DHT22;4618;48.818;9.088;2023-12-20T10:11:38;8.20;99.90
9167;DHT22;4618;48.818;9.088;2023-12-20T10:14:04;7.60;99.90
9167;DHT22;4618;48.818;9.088;2023-12-20T10:16:31;7.20;1.00
9167;DHT22;4618;48.818;9.088;2023-12-20T10:18:58;6.90;1.00
9167;DHT22;4618;48.818;9.088;2023-12-20T10:21:24;6.70;1.00
9167;DHT22;4618;48.818;9.088;2023-12-20T10:23:52;6.70;29.20
9167;DHT22;4618;48.818;9.088;2023-12-20T10:26:25;6.50;1.00
9167;DHT22;4618;48.818;9.088;2023-12-20T10:28:53;6.40;99.90
9167;DHT22;4618;48.818;9.088;2023-12-20T10:31:30;6.40;99.90
9167;DHT22;4618;48.818;9.088;2023-12-20T10:33:57;6.30;99.90
9167;DHT22;4618;48.818;9.088;2023-12-20T10:36:28;6.30;99.90
9167;DHT22;4618;48.818;9.088;2023-12-20T10:38:55;6.30;99.90
9167;DHT22;4618;48.818;9.088;2023-12-20T10:41:30;6.30;99.90
9167;DHT22;4618;48.818;9.088;2023-12-20T10:44:00;6.30;27.60
9167;DHT22;4618;48.818;9.088;2023-12-20T10:46:27;6.20;69.70
9167;DHT22;4618;48.818;9.088;2023-12-20T10:48:54;6.10;1.00
9167;DHT22;4618;48.818;9.088;2023-12-20T10:51:21;6.10;1.00
9167;DHT22;4618;48.818;9.088;2023-12-20T10:53:48;6.10;1.00
9167;DHT22;4618;48.818;9.088;2023-12-20T10:56:17;6.10;1.00
9167;DHT22;4618;48.818;9.088;2023-12-20T10:58:43;6.10;1.00
9167;DHT22;4618;48.818;9.088;2023-12-20T11:01:12;6.10;1.00
9167;DHT22;4618;48.818;9.088;2023-12-20T11:03:38;6.10;99.90
9167;DHT22;4618;48.818;9.088;2023-12-20T11:06:19;6.20;99.90
9167;DHT22;4618;48.818;9.088;2023-12-20T11:08:59;6.30;99.90
9167;DHT22;4618;48.818;9.088;2023-12-20T11:11:53;6.30;1.00
9167;DHT22;4618;48.818;9.088;2023-12-20T11:14:48;6.30;99.90
9167;DHT22;4618;48.818;9.088;2023-12-20T11:17:14;6.20;99.90
9167;DHT22;4618;48.818;9.088;2023-12-20T11:22:24;6.10;99.90
9167;DHT22;4618;48.818;9.088;2023-12-20T11:24:51;6.20;99.90
9167;DHT22;4618;48.818;9.088;2023-12-20T11:27:18;6.10;99.90
9167;DHT22;4618;48.818;9.088;2023-12-20T11:29:52;6.10;99.90
9167;DHT22;4618;48.818;9.088;2023-12-20T11:34:51;6.20;99.90
9167;DHT22;4618;48.818;9.088;2023-12-20T11:37:19;6.20;99.90
9167;DHT22;4618;48.818;9.088;2023-12-20T11:39:45;6.20;99.90
9167;DHT22;4618;48.818;9.088;2023-12-20T11:42:11;6.10;2.10
9167;DHT22;4618;48.818;9.088;2023-12-20T11:44:37;6.20;99.90
9167;DHT22;4618;48.818;9.088;2023-12-20T11:47:03;6.20;85.20
9167;DHT22;4618;48.818;9.088;2023-12-20T11:49:29;6.10;96.50
9167;DHT22;4618;48.818;9.088;2023-12-20T11:51:56;6.00;73.00
9167;DHT22;4618;48.818;9.088;2023-12-20T11:54:22;5.90;64.70
9167;DHT22;4618;48.818;9.088;2023-12-20T11:56:48;5.90;99.90
9167;DHT22;4618;48.818;9.088;2023-12-20T11:59:14;6.00;99.90
9167;DHT22;4618;48.818;9.088;2023-12-20T12:01:39;6.10;99.90
9167;DHT22;4618;48.818;9.088;2023-12-20T12:04:06;6.00;99.90
9167;DHT22;4618;48.818;9.088;2023-12-20T12:06:32;6.10;99.90
9167;DHT22;4618;48.818;9.088;2023-12-20T12:08:58;6.10;99.90
9167;DHT22;4618;48.818;9.088;2023-12-20T12:11:23;6.20;10.80
9167;DHT22;4618;48.818;9.088;2023-12-20T12:13:49;6.30;1.00
9167;DHT22;4618;48.818;9.088;2023-12-20T12:16:19;6.40;1.00
9167;DHT22;4618;48.818;9.088;2023-12-20T12:18:46;6.60;1.00
9167;DHT22;4618;48.818;9.088;2023-12-20T12:21:21;6.70;1.00
9167;DHT22;4618;48.818;9.088;2023-12-20T12:23:46;6.80;1.00
9167;DHT22;4618;48.818;9.088;2023-12-20T12:26:12;6.80;1.00
9167;DHT22;4618;48.818;9.088;2023-12-20T12:28:40;6.80;1.00
9167;DHT22;4618;48.818;9.088;2023-12-20T12:31:06;7.00;1.00
9167;DHT22;4618;48.818;9.088;2023-12-20T12:33:32;6.90;1.00
9167;DHT22;4618;48.818;9.088;2023-12-20T12:35:58;6.70;1.00
9167;DHT22;4618;48.818;9.088;2023-12-20T12:38:25;7.30;1.00
9167;DHT22;4618;48.818;9.088;2023-12-20T12:40:50;8.00;1.00
9167;DHT22;4618;48.818;9.088;2023-12-20T12:43:18;7.90;1.00
9167;DHT22;4618;48.818;9.088;2023-12-20T12:45:44;7.30;1.00
9167;DHT22;4618;48.818;9.088;2023-12-20T12:48:10;6.90;1.00
9167;DHT22;4618;48.818;9.088;2023-12-20T12:50:36;6.70;1.00
9167;DHT22;4618;48.818;9.088;2023-12-20T12:53:01;6.60;1.00
9167;DHT22;4618;48.818;9.088;2023-12-20T12:55:28;6.60;1.00
9167;DHT22;4618;48.818;9.088;2023-12-20T12:57:54;6.50;1.00
9167;DHT22;4618;48.818;9.088;2023-12-20T13:00:20;6.50;1.00
9167;DHT22;4618;48.818;9.088;2023-12-20T13:02:45;6.60;1.00
9167;DHT22;4618;48.818;9.088;2023-12-20T13:05:11;6.60;1.00
9167;DHT22;4618;48.818;9.088;2023-12-20T13:07:36;6.50;1.00
9167;DHT22;4618;48.818;9.088;2023-12-20T13:10:03;6.50;1.00
9167;DHT22;4618;48.818;9.088;2023-12-20T13:12:29;6.40;1.00
9167;DHT22;4618;48.818;9.088;2023-12-20T13:14:55;6.30;1.00
9167;DHT22;4618;48.818;9.088;2023-12-20T13:17:20;6.30;1.00
9167;DHT22;4618;48.818;9.088;2023-12-20T13:19:46;6.60;1.00
9167;DHT22;4618;48.818;9.088;2023-12-20T13:22:12;7.70;1.00
9167;DHT22;4618;48.818;9.088;2023-12-20T13:24:37;7.60;1.00
9167;DHT22;4618;48.818;9.088;2023-12-20T13:27:03;7.40;1.00
9167;DHT22;4618;48.818;9.088;2023-12-20T13:29:28;7.40;1.00
9167;DHT22;4618;48.818;9.088;2023-12-20T13:31:54;7.60;1.00
9167;DHT22;4618;48.818;9.088;2023-12-20T13:34:20;7.70;1.00
9167;DHT22;4618;48.818;9.088;2023-12-20T13:36:46;7.50;1.00
9167;DHT22;4618;48.818;9.088;2023-12-20T13:39:13;7.10;1.00
9167;DHT22;4618;48.818;9.088;2023-12-20T13:41:39;6.90;1.00
9167;DHT22;4618;48.818;9.088;2023-12-20T13:44:04;6.70;1.00
9167;DHT22;4618;48.818;9.088;2023-12-20T13:46:30;6.50;1.00
9167;DHT22;4618;48.818;9.088;2023-12-20T13:48:56;6.30;1.00
9167;DHT22;4618;48.818;9.088;2023-12-20T13:51:22;6.20;1.00
9167;DHT22;4618;48.818;9.088;2023-12-20T13:53:48;6.20;75.50
9167;DHT22;4618;48.818;9.088;2023-12-20T13:56:15;6.10;99.90
9167;DHT22;4618;48.818;9.088;2023-12-20T13:58:40;6.10;99.90
9167;DHT22;4618;48.818;9.088;2023-12-20T14:01:07;6.10;99.90
9167;DHT22;4618;48.818;9.088;2023-12-20T14:03:34;6.00;99.90
9167;DHT22;4618;48.818;9.088;2023-12-20T14:06:00;6.00;99.90
9167;DHT22;4618;48.818;9.088;2023-12-20T14:08:27;6.00;99.90
9167;DHT22;4618;48.818;9.088;2023-12-20T14:10:52;6.00;99.90
9167;DHT22;4618;48.818;9.088;2023-12-20T14:13:18;5.90;99.90
9167;DHT22;4618;48.818;9.088;2023-12-20T14:15:44;5.80;1.00
9167;DHT22;4618;48.818;9.088;2023-12-20T14:18:10;5.80;1.00
9167;DHT22;4618;48.818;9.088;2023-12-20T14:20:36;5.80;1.00
9167;DHT22;4618;48.818;9.088;2023-12-20T14:23:02;5.70;64.00
9167;DHT22;4618;48.818;9.088;2023-12-20T14:25:28;5.70;1.00
9167;DHT22;4618;48.818;9.088;2023-12-20T14:27:54;5.70;1.00
9167;DHT22;4618;48.818;9.088;2023-12-20T14:30:19;5.70;1.00
9167;DHT22;4618;48.818;9.088;2023-12-20T14:32:45;5.60;1.00
9167;DHT22;4618;48.818;9.088;2023-12-20T14:35:13;5.50;60.30
9167;DHT22;4618;48.818;9.088;2023-12-20T14:37:39;5.50;5.70
9167;DHT22;4618;48.818;9.088;2023-12-20T14:40:07;5.50;99.90
9167;DHT22;4618;48.818;9.088;2023-12-20T14:42:36;5.50;99.90
9167;DHT22;4618;48.818;9.088;2023-12-20T14:45:01;5.40;1.00
9167;DHT22;4618;48.818;9.088;2023-12-20T14:47:27;5.40;1.00
9167;DHT22;4618;48.818;9.088;2023-12-20T14:49:52;5.30;1.00
9167;DHT22;4618;48.818;9.088;2023-12-20T14:52:18;5.30;1.00
9167;DHT22;4618;48.818;9.088;2023-12-20T14:54:46;5.40;1.00
9167;DHT22;4618;48.818;9.088;2023-12-20T14:57:12;5.40;99.90
9167;DHT22;4618;48.818;9.088;2023-12-20T14:59:38;5.30;1.00
9167;DHT22;4618;48.818;9.088;2023-12-20T15:02:03;5.20;1.00
9167;DHT22;4618;48.818;9.088;2023-12-20T15:04:30;5.20;99.90
9167;DHT22;4618;48.818;9.088;2023-12-20T15:06:56;5.30;99.90
9167;DHT22;4618;48.818;9.088;2023-12-20T15:09:22;5.30;99.90
9167;DHT22;4618;48.818;9.088;2023-12-20T15:11:47;5.30;99.90
9167;DHT22;4618;48.818;9.088;2023-12-20T15:14:13;5.30;99.90
9167;DHT22;4618;48.818;9.088;2023-12-20T15:16:44;5.30;99.90
9167;DHT22;4618;48.818;9.088;2023-12-20T15:19:10;5.30;99.90
9167;DHT22;4618;48.818;9.088;2023-12-20T15:21:35;5.30;99.90
9167;DHT22;4618;48.818;9.088;2023-12-20T15:24:05;5.40;99.90
9167;DHT22;4618;48.818;9.088;2023-12-20T15:26:38;5.40;99.90
9167;DHT22;4618;48.818;9.088;2023-12-20T15:29:03;5.40;94.00
9167;DHT22;4618;48.818;9.088;2023-12-20T15:31:29;5.50;1.00
9167;DHT22;4618;48.818;9.088;2023-12-20T15:33:56;5.50;1.00
9167;DHT22;4618;48.818;9.088;2023-12-20T15:36:22;5.50;1.00
9167;DHT22;4618;48.818;9.088;2023-12-20T15:38:48;5.50;1.00
9167;DHT22;4618;48.818;9.088;2023-12-20T15:41:20;5.50;1.00
9167;DHT22;4618;48.818;9.088;2023-12-20T15:43:46;5.50;1.00
9167;DHT22;4618;48.818;9.088;2023-12-20T15:46:11;5.50;1.00
9167;DHT22;4618;48.818;9.088;2023-12-20T15:48:37;5.60;1.00
9167;DHT22;4618;48.818;9.088;2023-12-20T15:51:06;5.50;1.00
9167;DHT22;4618;48.818;9.088;2023-12-20T15:53:32;5.50;1.00
9167;DHT22;4618;48.818;9.088;2023-12-20T15:55:58;5.50;1.00
9167;DHT22;4618;48.818;9.088;2023-12-20T15:58:24;5.50;1.00
9167;DHT22;4618;48.818;9.088;2023-12-20T16:00:49;5.50;1.00
9167;DHT22;4618;48.818;9.088;2023-12-20T16:03:15;5.50;1.00
9167;DHT22;4618;48.818;9.088;2023-12-20T16:05:40;5.50;1.00
9167;DHT22;4618;48.818;9.088;2023-12-20T16:08:07;5.50;51.40
9167;DHT22;4618;48.818;9.088;2023-12-20T16:10:32;5.50;82.60
9167;DHT22;4618;48.818;9.088;2023-12-20T16:12:58;5.40;99.90
9167;DHT22;4618;48.818;9.088;2023-12-20T16:15:24;5.40;99.90
9167;DHT22;4618;48.818;9.088;2023-12-20T16:17:49;5.30;99.90
9167;DHT22;4618;48.818;9.088;2023-12-20T16:20:15;5.20;1.00
9167;DHT22;4618;48.818;9.088;2023-12-20T16:22:40;5.20;1.00
9167;DHT22;4618;48.818;9.088;2023-12-20T16:25:07;5.20;1.00
9167;DHT22;4618;48.818;9.088;2023-12-20T16:27:32;5.10;1.00
9167;DHT22;4618;48.818;9.088;2023-12-20T16:30:02;5.00;1.00
9167;DHT22;4618;48.818;9.088;2023-12-20T16:32:28;5.00;11.00
9167;DHT22;4618;48.818;9.088;2023-12-20T16:34:53;4.90;99.90
9167;DHT22;4618;48.818;9.088;2023-12-20T16:37:19;4.90;99.90
9167;DHT22;4618;48.818;9.088;2023-12-20T16:39:44;4.90;43.10
9167;DHT22;4618;48.818;9.088;2023-12-20T16:42:10;5.00;1.00
9167;DHT22;4618;48.818;9.088;2023-12-20T16:44:35;4.90;1.00
9167;DHT22;4618;48.818;9.088;2023-12-20T16:47:01;4.90;4.80
9167;DHT22;4618;48.818;9.088;2023-12-20T16:49:26;4.90;99.90
9167;DHT22;4618;48.818;9.088;2023-12-20T16:51:52;4.90;99.90
9167;DHT22;4618;48.818;9.088;2023-12-20T16:54:18;4.80;99.90
9167;DHT22;4618;48.818;9.088;2023-12-20T16:56:43;4.80;99.90
9167;DHT22;4618;48.818;9.088;2023-12-20T16:59:09;4.90;99.90
9167;DHT22;4618;48.818;9.088;2023-12-20T17:01:35;4.80;99.90
9167;DHT22;4618;48.818;9.088;2023-12-20T17:04:01;4.80;99.90
9167;DHT22;4618;48.818;9.088;2023-12-20T17:06:28;4.80;99.90
9167;DHT22;4618;48.818;9.088;2023-12-20T17:08:53;4.80;99.90
9167;DHT22;4618;48.818;9.088;2023-12-20T17:11:19;4.80;99.90
9167;DHT22;4618;48.818;9.088;2023-12-20T17:13:46;4.90;99.90
9167;DHT22;4618;48.818;9.088;2023-12-20T17:16:12;4.80;99.90
9167;DHT22;4618;48.818;9.088;2023-12-20T17:18:38;4.90;99.90
9167;DHT22;4618;48.818;9.088;2023-12-20T17:21:06;4.90;99.90
9167;DHT22;4618;48.818;9.088;2023-12-20T17:23:33;4.80;99.90
9167;DHT22;4618;48.818;9.088;2023-12-20T17:25:59;4.90;14.10
9167;DHT22;4618;48.818;9.088;2023-12-20T17:28:24;4.90;1.00
9167;DHT22;4618;48.818;9.088;2023-12-20T17:30:50;4.90;1.00
9167;DHT22;4618;48.818;9.088;2023-12-20T17:33:16;4.90;1.00
9167;DHT22;4618;48.818;9.088;2023-12-20T17:35:41;4.90;1.00
9167;DHT22;4618;48.818;9.088;2023-12-20T17:38:07;5.00;1.00
9167;DHT22;4618;48.818;9.088;2023-12-20T17:40:33;5.00;1.00
9167;DHT22;4618;48.818;9.088;2023-12-20T17:42:58;5.00;99.90
9167;DHT22;4618;48.818;9.088;2023-12-20T17:45:24;5.10;99.90
9167;DHT22;4618;48.818;9.088;2023-12-20T17:47:50;5.10;99.90
9167;DHT22;4618;48.818;9.088;2023-12-20T17:50:15;5.10;99.90
9167;DHT22;4618;48.818;9.088;2023-12-20T17:52:41;5.10;99.90
9167;DHT22;4618;48.818;9.088;2023-12-20T17:55:07;5.20;99.90
9167;DHT22;4618;48.818;9.088;2023-12-20T17:57:32;5.20;61.00
9167;DHT22;4618;48.818;9.088;2023-12-20T18:02:39;5.10;99.90
9167;DHT22;4618;48.818;9.088;2023-12-20T18:05:05;5.10;99.90
9167;DHT22;4618;48.818;9.088;2023-12-20T18:07:30;5.10;99.90
9167;DHT22;4618;48.818;9.088;2023-12-20T18:09:56;5.10;99.90
9167;DHT22;4618;48.818;9.088;2023-12-20T18:12:21;5.10;99.90
9167;DHT22;4618;48.818;9.088;2023-12-20T18:14:47;5.20;38.70
9167;DHT22;4618;48.818;9.088;2023-12-20T18:17:14;5.10;99.90
9167;DHT22;4618;48.818;9.088;2023-12-20T18:19:39;5.20;53.40
9167;DHT22;4618;48.818;9.088;2023-12-20T18:22:05;5.20;31.60
9167;DHT22;4618;48.818;9.088;2023-12-20T18:24:30;5.20;35.40
9167;DHT22;4618;48.818;9.088;2023-12-20T18:26:56;5.20;17.70
9167;DHT22;4618;48.818;9.088;2023-12-20T18:29:21;5.20;1.00
9167;DHT22;4618;48.818;9.088;2023-12-20T18:31:47;5.20;1.00
9167;DHT22;4618;48.818;9.088;2023-12-20T18:34:12;5.20;1.00
9167;DHT22;4618;48.818;9.088;2023-12-20T18:36:38;5.20;1.00
9167;DHT22;4618;48.818;9.088;2023-12-20T18:39:03;5.20;1.00
9167;DHT22;4618;48.818;9.088;2023-12-20T18:41:29;5.20;23.90
9167;DHT22;4618;48.818;9.088;2023-12-20T18:43:55;5.20;26.70
9167;DHT22;4618;48.818;9.088;2023-12-20T18:46:21;5.20;99.90
9167;DHT22;4618;48.818;9.088;2023-12-20T18:48:47;5.10;99.90
9167;DHT22;4618;48.818;9.088;2023-12-20T18:51:13;5.10;99.90
9167;DHT22;4618;48.818;9.088;2023-12-20T18:53:39;5.20;99.90
9167;DHT22;4618;48.818;9.088;2023-12-20T18:56:06;5.10;99.90
9167;DHT22;4618;48.818;9.088;2023-12-20T18:58:32;5.10;99.90
9167;DHT22;4618;48.818;9.088;2023-12-20T19:00:58;5.10;99.90
9167;DHT22;4618;48.818;9.088;2023-12-20T19:03:25;5.10;99.90
9167;DHT22;4618;48.818;9.088;2023-12-20T19:05:51;5.20;99.90
9167;DHT22;4618;48.818;9.088;2023-12-20T19:08:17;5.20;99.90
9167;DHT22;4618;48.818;9.088;2023-12-20T19:10:43;5.30;69.90
9167;DHT22;4618;48.818;9.088;2023-12-20T19:13:08;5.20;99.90
9167;DHT22;4618;48.818;9.088;2023-12-20T19:15:34;5.20;99.90
9167;DHT22;4618;48.818;9.088;2023-12-20T19:17:59;5.20;99.90
9167;DHT22;4618;48.818;9.088;2023-12-20T19:20:25;5.20;99.90
9167;DHT22;4618;48.818;9.088;2023-12-20T19:22:51;5.10;99.90
9167;DHT22;4618;48.818;9.088;2023-12-20T19:25:16;5.00;1.00
9167;DHT22;4618;48.818;9.088;2023-12-20T19:27:42;5.00;1.00
9167;DHT22;4618;48.818;9.088;2023-12-20T19:30:08;4.90;1.00
9167;DHT22;4618;48.818;9.088;2023-12-20T19:32:34;5.00;1.00
9167;DHT22;4618;48.818;9.088;2023-12-20T19:35:00;5.00;1.00
9167;DHT22;4618;48.818;9.088;2023-12-20T19:37:25;5.00;1.00
9167;DHT22;4618;48.818;9.088;2023-12-20T19:39:51;5.00;1.00
9167;DHT22;4618;48.818;9.088;2023-12-20T19:42:17;5.00;1.00
9167;DHT22;4618;48.818;9.088;2023-12-20T19:44:43;5.00;1.00
9167;DHT22;4618;48.818;9.088;2023-12-20T19:47:09;4.90;1.00
9167;DHT22;4618;48.818;9.088;2023-12-20T19:49:35;4.80;1.00
9167;DHT22;4618;48.818;9.088;2023-12-20T19:52:02;4.80;77.90
9167;DHT22;4618;48.818;9.088;2023-12-20T19:54:28;4.70;99.90
9167;DHT22;4618;48.818;9.088;2023-12-20T19:56:54;4.70;99.90
9167;DHT22;4618;48.818;9.088;2023-12-20T19:59:20;4.70;99.90
9167;DHT22;4618;48.818;9.088;2023-12-20T20:01:45;4.60;99.90
9167;DHT22;4618;48.818;9.088;2023-12-20T20:04:11;4.60;99.90
9167;DHT22;4618;48.818;9.088;2023-12-20T20:06:36;4.60;99.90
9167;DHT22;4618;48.818;9.088;2023-12-20T20:09:02;4.60;99.90
9167;DHT22;4618;48.818;9.088;2023-12-20T20:11:29;4.60;99.90
9167;DHT22;4618;48.818;9.088;2023-12-20T20:13:54;4.50;1.00
9167;DHT22;4618;48.818;9.088;2023-12-20T20:16:24;4.60;1.00
9167;DHT22;4618;48.818;9.088;2023-12-20T20:18:50;4.50;1.00
9167;DHT22;4618;48.818;9.088;2023-12-20T20:21:16;4.50;1.00